Time;durP1;ratioP1;P1;durP2;ratioP2;P2;SDS_P1;SDS_P2;PMS_P1;PMS_P2;Temp;Humidity;BMP_temperature;BMP_pressure;BME280_temperature;BME280_humidity;BME280_pressure;Samples;Min_cycle;Max_cycle;Signal;HPM_P1;HPM_P2
2022/01/13 00:02:05;;;;;;;69.40;16.05;;;;;;;;;;5079595;28;20040;-78
2022/01/13 00:04:31;;;;;;;76.00;14.85;;;;;;;;;;5081469;28;20033;-77
2022/01/13 00:06:57;;;;;;;63.97;14.57;;;;;;;;;;5080806;28;20055;-77
2022/01/13 00:09:23;;;;;;;72.32;15.07;;;;;;;;;;5080042;28;20115;-76
2022/01/13 00:11:50;;;;;;;81.65;17.35;;;;;;;;;;5081474;28;20032;-75
2022/01/13 00:19:34;;;;;;;83.38;17.25;;;;;;;;;;5081496;28;20048;-74
2022/01/13 00:22:15;;;;;;;85.45;17.70;;;;;;;;;;5065309;28;20051;-76
2022/01/13 00:24:43;;;;;;;69.53;15.32;;;;;;;;;;5098204;28;20062;-78
2022/01/13 00:27:12;;;;;;;87.25;17.90;;;;;;;;;;5096569;28;20040;-77
2022/01/13 00:29:41;;;;;;;69.72;14.43;;;;;;;;;;5095296;28;20396;-77
2022/01/13 00:32:08;;;;;;;65.35;15.25;;;;;;;;;;5077522;28;20040;-76
2022/01/13 00:34:34;;;;;;;78.82;16.08;;;;;;;;;;5076334;28;20305;-77
2022/01/13 00:37:00;;;;;;;78.07;16.15;;;;;;;;;;5076195;28;20040;-76
2022/01/13 00:39:25;;;;;;;71.75;13.68;;;;;;;;;;5077732;28;20042;-76
2022/01/13 00:41:52;;;;;;;67.70;14.95;;;;;;;;;;5075982;28;20537;-77
2022/01/13 00:44:21;;;;;;;81.65;15.55;;;;;;;;;;5075344;28;20036;-77
2022/01/13 00:46:57;;;;;;;68.90;14.07;;;;;;;;;;5077263;28;20032;-77
2022/01/13 00:49:23;;;;;;;80.00;15.20;;;;;;;;;;5075955;28;20481;-77
2022/01/13 00:51:49;;;;;;;72.20;15.93;;;;;;;;;;5075090;28;20119;-77
2022/01/13 00:54:15;;;;;;;70.32;14.82;;;;;;;;;;5076263;28;20036;-77
2022/01/13 00:56:41;;;;;;;87.30;15.43;;;;;;;;;;5076601;28;20502;-76
2022/01/13 00:59:09;;;;;;;70.80;14.00;;;;;;;;;;5074592;28;20044;-77
2022/01/13 01:01:40;;;;;;;69.13;13.43;;;;;;;;;;5076642;28;20570;-77
2022/01/13 01:04:07;;;;;;;60.50;13.38;;;;;;;;;;5077245;28;20040;-77
2022/01/13 01:06:33;;;;;;;58.88;12.98;;;;;;;;;;5075587;28;20082;-77
2022/01/13 01:08:59;;;;;;;51.75;11.40;;;;;;;;;;5075376;28;20036;-76
2022/01/13 01:11:26;;;;;;;49.60;13.27;;;;;;;;;;5076256;28;20032;-78
2022/01/13 01:13:53;;;;;;;53.28;11.57;;;;;;;;;;5075416;28;20033;-76
2022/01/13 01:16:20;;;;;;;47.80;11.32;;;;;;;;;;5075238;28;20654;-77
2022/01/13 01:24:42;;;;;;;48.13;12.82;;;;;;;;;;5092175;28;20039;-77
2022/01/13 01:29:16;;;;;;;35.92;10.10;;;;;;;;;;5093555;28;20470;-78
2022/01/13 01:31:48;;;;;;;39.38;10.40;;;;;;;;;;5093534;28;20086;-78
2022/01/13 01:36:44;;;;;;;30.58;10.60;;;;;;;;;;5091768;28;20177;-75
2022/01/13 01:39:11;;;;;;;34.42;10.82;;;;;;;;;;5066401;28;20414;-76
2022/01/13 01:41:42;;;;;;;31.45;10.55;;;;;;;;;;5060246;28;20040;-76
2022/01/13 01:44:09;;;;;;;41.55;11.55;;;;;;;;;;5074328;28;20044;-76
2022/01/13 01:46:39;;;;;;;44.50;11.75;;;;;;;;;;5093674;28;20093;-77
2022/01/13 01:49:16;;;;;;;51.17;14.20;;;;;;;;;;5079702;28;20044;-77
2022/01/13 01:51:43;;;;;;;45.22;13.18;;;;;;;;;;5069932;28;20068;-76
2022/01/13 01:54:09;;;;;;;49.05;12.48;;;;;;;;;;5069260;28;20039;-77
2022/01/13 01:56:36;;;;;;;52.63;12.45;;;;;;;;;;5069657;28;20036;-77
2022/01/13 01:59:03;;;;;;;43.10;10.85;;;;;;;;;;5069777;28;20036;-77
2022/01/13 02:01:29;;;;;;;51.65;13.93;;;;;;;;;;5070009;28;20256;-75
2022/01/13 02:03:55;;;;;;;45.47;11.57;;;;;;;;;;5070094;28;20044;-77
2022/01/13 02:06:22;;;;;;;38.70;11.98;;;;;;;;;;5069804;28;20389;-77
2022/01/13 02:08:48;;;;;;;50.80;12.73;;;;;;;;;;5069889;28;20405;-77
2022/01/13 02:11:15;;;;;;;42.88;12.57;;;;;;;;;;5069682;28;20045;-77
2022/01/13 02:13:49;;;;;;;39.35;11.40;;;;;;;;;;5069718;28;20043;-77
2022/01/13 02:18:56;;;;;;;42.47;11.60;;;;;;;;;;5086932;28;20088;-77
2022/01/13 02:21:25;;;;;;;37.35;10.30;;;;;;;;;;5069617;28;20127;-77
2022/01/13 02:23:51;;;;;;;40.33;10.88;;;;;;;;;;5069880;28;20044;-76
2022/01/13 02:26:17;;;;;;;38.17;10.23;;;;;;;;;;5069600;28;20051;-76
2022/01/13 02:28:44;;;;;;;34.45;10.25;;;;;;;;;;5069792;28;20098;-77
2022/01/13 02:31:11;;;;;;;37.42;11.57;;;;;;;;;;5069758;28;20098;-77
2022/01/13 02:33:37;;;;;;;34.28;10.73;;;;;;;;;;5069569;28;20123;-77
2022/01/13 02:36:04;;;;;;;32.60;10.90;;;;;;;;;;5069461;28;20544;-77
2022/01/13 02:38:30;;;;;;;37.85;10.98;;;;;;;;;;5069661;28;20087;-77
2022/01/13 02:40:57;;;;;;;36.75;11.88;;;;;;;;;;5069648;28;20471;-77
2022/01/13 02:43:24;;;;;;;39.17;10.65;;;;;;;;;;5069437;28;20044;-77
2022/01/13 02:46:18;;;;;;;34.97;12.23;;;;;;;;;;5069320;28;20040;-77
2022/01/13 02:48:45;;;;;;;37.50;11.05;;;;;;;;;;5069660;28;20048;-77
2022/01/13 02:51:11;;;;;;;41.22;11.13;;;;;;;;;;5068993;28;20480;-77
2022/01/13 02:53:37;;;;;;;33.33;10.68;;;;;;;;;;5069288;28;20086;-78
2022/01/13 02:56:06;;;;;;;36.60;11.13;;;;;;;;;;5069367;28;20045;-77
2022/01/13 02:58:33;;;;;;;38.60;11.63;;;;;;;;;;5069759;28;20055;-77
2022/01/13 03:00:59;;;;;;;47.03;12.88;;;;;;;;;;5069674;28;20523;-78
2022/01/13 03:03:27;;;;;;;42.47;12.60;;;;;;;;;;5069776;28;20102;-77
2022/01/13 03:05:53;;;;;;;37.05;10.75;;;;;;;;;;5069379;28;20044;-78
2022/01/13 03:08:19;;;;;;;41.65;12.27;;;;;;;;;;5071879;28;20404;-76
2022/01/13 03:10:45;;;;;;;44.55;13.10;;;;;;;;;;5073147;28;20067;-77
2022/01/13 03:13:11;;;;;;;40.25;11.52;;;;;;;;;;5073017;28;20036;-77
2022/01/13 03:15:37;;;;;;;39.63;11.13;;;;;;;;;;5072795;28;20052;-76
2022/01/13 03:18:03;;;;;;;37.70;11.52;;;;;;;;;;5072866;28;20554;-77
2022/01/13 03:20:29;;;;;;;37.63;10.68;;;;;;;;;;5092114;28;20080;-77
2022/01/13 03:22:55;;;;;;;43.40;11.25;;;;;;;;;;5092910;28;20044;-77
2022/01/13 03:25:23;;;;;;;43.38;10.10;;;;;;;;;;5092826;28;20036;-77
2022/01/13 03:27:55;;;;;;;41.03;11.45;;;;;;;;;;5093010;28;20086;-76
2022/01/13 03:30:21;;;;;;;36.88;11.88;;;;;;;;;;5093319;28;20102;-76
2022/01/13 03:32:47;;;;;;;37.63;11.00;;;;;;;;;;5093015;28;20036;-77
2022/01/13 03:35:13;;;;;;;41.88;11.43;;;;;;;;;;5092721;28;20127;-77
2022/01/13 03:37:39;;;;;;;32.67;10.30;;;;;;;;;;5092846;28;20048;-77
2022/01/13 03:40:05;;;;;;;38.28;10.18;;;;;;;;;;5092662;28;20040;-77
2022/01/13 03:42:31;;;;;;;33.45;9.85;;;;;;;;;;5092473;28;20051;-78
2022/01/13 03:44:58;;;;;;;49.85;11.45;;;;;;;;;;5092424;28;20063;-77
2022/01/13 03:47:24;;;;;;;38.13;10.43;;;;;;;;;;5092633;28;20589;-77
2022/01/13 03:49:50;;;;;;;32.53;10.50;;;;;;;;;;5091269;28;20036;-78
2022/01/13 03:52:22;;;;;;;35.53;10.02;;;;;;;;;;5092123;28;20441;-76
2022/01/13 03:55:07;;;;;;;41.53;10.02;;;;;;;;;;5092593;28;20055;-77
2022/01/13 03:57:52;;;;;;;34.25;10.73;;;;;;;;;;5092637;28;20092;-77
2022/01/13 04:00:41;;;;;;;32.58;10.32;;;;;;;;;;5092496;28;20043;-77
2022/01/13 04:03:07;;;;;;;40.63;10.05;;;;;;;;;;5092760;28;20072;-77
2022/01/13 04:05:53;;;;;;;37.33;11.18;;;;;;;;;;5092395;28;20549;-76
2022/01/13 04:08:19;;;;;;;34.17;10.05;;;;;;;;;;5091879;28;20458;-76
2022/01/13 04:10:45;;;;;;;38.47;10.93;;;;;;;;;;5092158;28;20036;-77
2022/01/13 04:13:23;;;;;;;33.15;10.60;;;;;;;;;;5092104;28;20036;-75
2022/01/13 04:15:49;;;;;;;40.40;11.07;;;;;;;;;;5092012;28;20066;-76
2022/01/13 04:18:16;;;;;;;41.58;10.13;;;;;;;;;;5091368;28;20040;-74
2022/01/13 04:20:42;;;;;;;45.38;11.55;;;;;;;;;;5091279;28;20032;-77
2022/01/13 04:23:08;;;;;;;43.50;10.35;;;;;;;;;;5091929;28;20093;-77
2022/01/13 04:25:34;;;;;;;44.90;11.57;;;;;;;;;;5091715;28;20505;-75
2022/01/13 04:28:03;;;;;;;45.30;10.65;;;;;;;;;;5091668;28;20177;-76
2022/01/13 04:30:46;;;;;;;43.08;10.45;;;;;;;;;;5092022;28;20055;-77
2022/01/13 04:33:13;;;;;;;45.08;10.25;;;;;;;;;;5074841;28;20070;-76
2022/01/13 04:35:39;;;;;;;34.55;10.65;;;;;;;;;;5091564;28;20048;-76
2022/01/13 04:38:05;;;;;;;37.40;9.98;;;;;;;;;;5091529;28;20047;-76
2022/01/13 04:40:31;;;;;;;43.05;10.30;;;;;;;;;;5091408;28;20093;-76
2022/01/13 04:42:57;;;;;;;41.08;11.00;;;;;;;;;;5091783;28;20387;-77
2022/01/13 04:45:24;;;;;;;44.70;10.00;;;;;;;;;;5091313;28;20040;-76
2022/01/13 04:47:52;;;;;;;49.15;10.57;;;;;;;;;;5091329;28;20044;-75
2022/01/13 04:50:18;;;;;;;44.58;10.38;;;;;;;;;;5090360;28;20040;-76
2022/01/13 04:52:44;;;;;;;35.15;8.93;;;;;;;;;;5091208;28;20400;-76
2022/01/13 04:55:12;;;;;;;36.28;9.35;;;;;;;;;;5074113;28;20048;-78
2022/01/13 04:57:38;;;;;;;40.72;11.10;;;;;;;;;;5091136;28;20040;-77
2022/01/13 05:00:06;;;;;;;54.40;11.57;;;;;;;;;;5074286;28;20442;-77
2022/01/13 05:02:32;;;;;;;42.08;10.40;;;;;;;;;;5074187;28;20044;-77
2022/01/13 05:04:58;;;;;;;43.15;10.73;;;;;;;;;;5091019;28;20044;-76
2022/01/13 05:07:24;;;;;;;36.03;10.35;;;;;;;;;;5091133;28;20119;-76
2022/01/13 05:09:50;;;;;;;34.80;10.43;;;;;;;;;;5074469;28;20127;-77
2022/01/13 05:12:17;;;;;;;32.33;9.50;;;;;;;;;;5073955;28;20042;-77
2022/01/13 05:14:46;;;;;;;32.40;9.70;;;;;;;;;;5073818;28;20105;-77
2022/01/13 05:17:34;;;;;;;44.90;12.20;;;;;;;;;;5090713;28;20067;-76
2022/01/13 05:20:13;;;;;;;37.30;9.25;;;;;;;;;;5091056;28;20044;-77
2022/01/13 05:22:39;;;;;;;34.47;9.95;;;;;;;;;;5074094;28;20036;-76
2022/01/13 05:25:05;;;;;;;38.75;11.02;;;;;;;;;;5090631;28;20064;-77
2022/01/13 05:27:31;;;;;;;34.42;9.23;;;;;;;;;;5074333;28;20047;-76
2022/01/13 05:29:59;;;;;;;28.92;9.93;;;;;;;;;;5073412;28;20040;-77
2022/01/13 05:32:25;;;;;;;48.03;11.18;;;;;;;;;;5090661;28;20047;-77
2022/01/13 05:34:51;;;;;;;29.17;9.77;;;;;;;;;;5090997;28;20081;-77
2022/01/13 05:37:17;;;;;;;47.60;10.27;;;;;;;;;;5090630;28;20067;-77
2022/01/13 05:39:42;;;;;;;39.15;10.75;;;;;;;;;;5073670;28;20047;-76
2022/01/13 05:42:09;;;;;;;38.83;9.75;;;;;;;;;;5073850;28;20408;-76
2022/01/13 05:44:38;;;;;;;34.92;10.32;;;;;;;;;;5073822;28;20040;-77
2022/01/13 05:47:05;;;;;;;33.80;8.52;;;;;;;;;;5090696;28;20048;-77
2022/01/13 05:49:31;;;;;;;32.83;9.93;;;;;;;;;;5072352;28;20047;-77
2022/01/13 05:51:57;;;;;;;34.85;10.52;;;;;;;;;;5091002;28;20122;-76
2022/01/13 05:54:23;;;;;;;32.92;8.77;;;;;;;;;;5090523;28;20046;-78
2022/01/13 05:56:49;;;;;;;39.17;10.73;;;;;;;;;;5090496;28;20139;-77
2022/01/13 05:59:16;;;;;;;35.00;9.90;;;;;;;;;;5074200;28;20097;-77
2022/01/13 06:01:42;;;;;;;35.15;9.57;;;;;;;;;;5073812;28;20043;-78
2022/01/13 06:04:08;;;;;;;43.38;10.95;;;;;;;;;;5090675;28;20506;-77
2022/01/13 06:06:34;;;;;;;49.45;10.93;;;;;;;;;;5090451;28;20046;-78
2022/01/13 06:09:00;;;;;;;32.10;9.27;;;;;;;;;;5090874;28;20082;-78
2022/01/13 06:11:34;;;;;;;30.40;10.20;;;;;;;;;;5073822;28;20484;-78
2022/01/13 06:14:00;;;;;;;31.25;9.75;;;;;;;;;;5090953;28;20089;-77
2022/01/13 06:16:26;;;;;;;31.48;8.45;;;;;;;;;;5073538;28;20442;-76
2022/01/13 06:18:52;;;;;;;33.30;9.73;;;;;;;;;;5090466;28;20055;-77
2022/01/13 06:21:18;;;;;;;32.05;9.35;;;;;;;;;;5073280;28;20044;-76
2022/01/13 06:23:43;;;;;;;32.85;9.82;;;;;;;;;;5089988;28;20044;-76
2022/01/13 06:26:09;;;;;;;43.78;10.13;;;;;;;;;;5089971;28;20048;-77
2022/01/13 06:28:36;;;;;;;31.20;8.38;;;;;;;;;;5073486;28;20036;-78
2022/01/13 06:31:02;;;;;;;36.55;9.85;;;;;;;;;;5073447;28;20040;-77
2022/01/13 06:33:28;;;;;;;36.38;10.88;;;;;;;;;;5089866;28;20127;-77
2022/01/13 06:35:54;;;;;;;42.95;10.18;;;;;;;;;;5090260;28;20039;-76
2022/01/13 06:38:20;;;;;;;36.15;9.73;;;;;;;;;;5089965;28;20051;-75
2022/01/13 06:40:47;;;;;;;44.45;11.00;;;;;;;;;;5089686;28;20040;-77
2022/01/13 06:43:13;;;;;;;35.95;9.57;;;;;;;;;;5075399;28;20068;-76
2022/01/13 06:45:40;;;;;;;40.83;10.40;;;;;;;;;;5076850;28;20074;-77
2022/01/13 06:48:06;;;;;;;36.42;10.93;;;;;;;;;;5076695;28;20039;-76
2022/01/13 06:50:32;;;;;;;32.85;9.85;;;;;;;;;;5058871;28;20070;-79
2022/01/13 06:52:58;;;;;;;40.05;9.90;;;;;;;;;;5074262;28;20040;-76
2022/01/13 06:55:24;;;;;;;35.65;9.57;;;;;;;;;;5057219;28;20052;-77
2022/01/13 06:57:50;;;;;;;36.03;10.90;;;;;;;;;;5074032;28;20056;-77
2022/01/13 07:00:16;;;;;;;37.15;10.70;;;;;;;;;;5073122;28;20393;-77
2022/01/13 07:02:42;;;;;;;36.30;10.13;;;;;;;;;;5056485;28;20044;-78
2022/01/13 07:05:08;;;;;;;33.85;9.27;;;;;;;;;;5073022;28;20036;-77
2022/01/13 07:07:35;;;;;;;39.55;9.75;;;;;;;;;;5056320;28;20048;-77
2022/01/13 07:10:02;;;;;;;30.48;9.60;;;;;;;;;;5056360;28;20041;-78
2022/01/13 07:12:28;;;;;;;41.05;10.15;;;;;;;;;;5072975;28;20047;-77
2022/01/13 07:14:56;;;;;;;35.35;9.25;;;;;;;;;;5056233;28;20057;-79
2022/01/13 07:17:22;;;;;;;35.78;9.65;;;;;;;;;;5073019;28;20045;-78
2022/01/13 07:19:48;;;;;;;37.65;10.82;;;;;;;;;;5056239;28;20041;-77
2022/01/13 07:22:16;;;;;;;38.47;9.85;;;;;;;;;;5072656;28;20500;-76
2022/01/13 07:24:42;;;;;;;34.85;9.57;;;;;;;;;;5072755;28;20087;-77
2022/01/13 07:27:08;;;;;;;32.22;9.02;;;;;;;;;;5073011;28;20055;-76
2022/01/13 07:29:34;;;;;;;36.97;9.70;;;;;;;;;;5072658;28;20036;-78
2022/01/13 07:32:00;;;;;;;39.65;9.23;;;;;;;;;;5072740;28;20036;-77
2022/01/13 07:34:26;;;;;;;41.67;9.88;;;;;;;;;;5072547;28;20119;-77
2022/01/13 07:36:52;;;;;;;35.83;10.68;;;;;;;;;;5072838;28;20048;-77
2022/01/13 07:39:18;;;;;;;30.38;10.05;;;;;;;;;;5072492;28;20074;-77
2022/01/13 07:41:45;;;;;;;31.67;9.57;;;;;;;;;;5055707;28;20203;-77
2022/01/13 07:44:11;;;;;;;36.28;9.63;;;;;;;;;;5072223;28;20077;-77
2022/01/13 07:46:37;;;;;;;47.80;9.73;;;;;;;;;;5055271;28;20083;-76
2022/01/13 07:49:03;;;;;;;36.90;10.43;;;;;;;;;;5075377;28;20031;-75
2022/01/13 07:51:29;;;;;;;43.58;10.13;;;;;;;;;;5092382;28;20028;-77
2022/01/13 07:53:56;;;;;;;30.83;8.90;;;;;;;;;;5091845;28;20044;-77
2022/01/13 07:56:22;;;;;;;32.47;9.27;;;;;;;;;;5075162;28;20036;-77
2022/01/13 07:58:48;;;;;;;37.15;9.75;;;;;;;;;;5075206;28;20036;-77
2022/01/13 08:01:14;;;;;;;33.30;9.80;;;;;;;;;;5091996;28;20582;-77
2022/01/13 08:03:40;;;;;;;34.40;8.65;;;;;;;;;;5092177;28;20419;-76
2022/01/13 08:06:06;;;;;;;44.10;10.82;;;;;;;;;;5091969;28;20381;-77
2022/01/13 08:08:35;;;;;;;34.42;9.27;;;;;;;;;;5091933;28;20035;-76
2022/01/13 08:11:01;;;;;;;30.80;9.43;;;;;;;;;;5092028;28;20491;-76
2022/01/13 08:13:27;;;;;;;33.95;8.95;;;;;;;;;;5091915;28;20134;-76
2022/01/13 08:15:55;;;;;;;30.73;10.68;;;;;;;;;;5074581;28;20407;-77
2022/01/13 08:21:05;;;;;;;32.30;8.93;;;;;;;;;;5091536;28;20530;-76
2022/01/13 08:23:31;;;;;;;47.50;9.52;;;;;;;;;;5074698;28;20040;-76
2022/01/13 08:25:57;;;;;;;36.75;10.32;;;;;;;;;;5074572;28;20404;-76
2022/01/13 08:28:23;;;;;;;31.55;9.13;;;;;;;;;;5074616;28;20035;-76
2022/01/13 08:30:50;;;;;;;35.15;10.00;;;;;;;;;;5091561;28;20043;-76
2022/01/13 08:33:17;;;;;;;36.97;10.32;;;;;;;;;;5074616;28;20036;-75
2022/01/13 08:35:44;;;;;;;34.03;9.48;;;;;;;;;;5074501;28;20484;-76
2022/01/13 08:38:16;;;;;;;34.03;10.82;;;;;;;;;;5074646;28;20056;-78
2022/01/13 08:40:43;;;;;;;31.58;9.88;;;;;;;;;;5091215;28;20089;-78
2022/01/13 08:43:09;;;;;;;29.70;9.68;;;;;;;;;;5091096;28;20043;-77
2022/01/13 08:45:35;;;;;;;35.28;10.40;;;;;;;;;;5091200;28;20357;-76
2022/01/13 08:48:01;;;;;;;31.90;9.20;;;;;;;;;;5074580;28;20036;-76
2022/01/13 08:50:27;;;;;;;34.88;10.68;;;;;;;;;;5091280;28;20043;-76
2022/01/13 08:52:53;;;;;;;30.02;9.18;;;;;;;;;;5074453;28;20036;-77
2022/01/13 08:55:19;;;;;;;31.05;9.70;;;;;;;;;;5091002;28;20046;-78
2022/01/13 08:57:45;;;;;;;41.08;12.27;;;;;;;;;;5090905;28;20043;-76
2022/01/13 09:00:11;;;;;;;33.45;10.10;;;;;;;;;;5090730;28;20058;-76
2022/01/13 09:02:37;;;;;;;32.42;10.15;;;;;;;;;;5074012;28;20514;-77
2022/01/13 09:05:04;;;;;;;33.78;10.48;;;;;;;;;;5090248;28;20109;-77
2022/01/13 09:07:30;;;;;;;34.20;10.88;;;;;;;;;;5090710;28;20039;-78
2022/01/13 09:09:57;;;;;;;37.42;10.00;;;;;;;;;;5090850;28;20036;-77
2022/01/13 09:12:23;;;;;;;33.28;10.93;;;;;;;;;;5090948;28;20032;-77
2022/01/13 09:14:58;;;;;;;32.88;10.98;;;;;;;;;;5090356;28;20058;-77
2022/01/13 09:17:25;;;;;;;30.83;9.68;;;;;;;;;;5090670;28;20040;-76
2022/01/13 09:19:51;;;;;;;36.17;9.93;;;;;;;;;;5090565;28;20051;-77
2022/01/13 09:22:18;;;;;;;32.28;10.50;;;;;;;;;;5073897;28;20040;-76
2022/01/13 09:24:44;;;;;;;34.40;10.38;;;;;;;;;;5090411;28;20041;-77
2022/01/13 09:27:10;;;;;;;32.42;11.55;;;;;;;;;;5090390;28;20123;-76
2022/01/13 09:29:36;;;;;;;29.10;9.38;;;;;;;;;;5073497;28;20502;-76
2022/01/13 09:32:02;;;;;;;44.95;11.38;;;;;;;;;;5073597;28;20036;-76
2022/01/13 09:34:28;;;;;;;38.38;11.50;;;;;;;;;;5090468;28;20530;-77
2022/01/13 09:36:54;;;;;;;33.47;9.88;;;;;;;;;;5073393;28;20036;-76
2022/01/13 09:39:20;;;;;;;33.05;11.48;;;;;;;;;;5090649;28;20074;-77
2022/01/13 09:41:47;;;;;;;35.58;11.38;;;;;;;;;;5089928;28;20544;-76
2022/01/13 09:44:13;;;;;;;42.00;11.82;;;;;;;;;;5073386;28;20044;-76
2022/01/13 09:46:39;;;;;;;40.42;10.38;;;;;;;;;;5090036;28;20044;-76
2022/01/13 09:49:07;;;;;;;37.55;11.23;;;;;;;;;;5073348;28;20058;-77
2022/01/13 09:51:34;;;;;;;42.60;12.25;;;;;;;;;;5090345;28;20036;-77
2022/01/13 09:54:00;;;;;;;44.17;11.15;;;;;;;;;;5090050;28;20050;-78
2022/01/13 09:56:26;;;;;;;34.83;12.23;;;;;;;;;;5073116;28;20090;-76
2022/01/13 09:58:52;;;;;;;43.03;12.18;;;;;;;;;;5090151;28;20071;-77
2022/01/13 10:01:18;;;;;;;42.15;12.07;;;;;;;;;;5090344;28;20047;-77
2022/01/13 10:03:44;;;;;;;33.92;11.88;;;;;;;;;;5090268;28;20043;-77
2022/01/13 10:06:10;;;;;;;34.05;11.55;;;;;;;;;;5090089;28;20036;-77
2022/01/13 10:08:39;;;;;;;42.80;13.18;;;;;;;;;;5073247;28;20450;-77
2022/01/13 10:11:24;;;;;;;40.30;12.23;;;;;;;;;;5090243;28;20036;-77
2022/01/13 10:16:22;;;;;;;33.80;11.20;;;;;;;;;;5089884;28;20040;-77
2022/01/13 10:17:00;;;;;;;40.47;11.90;;;;;;;;;;5091611;28;20133;-75
2022/01/13 10:19:29;;;;;;;38.85;11.73;;;;;;;;;;5093846;28;20036;-77
2022/01/13 10:21:56;;;;;;;40.70;11.10;;;;;;;;;;5093913;28;20495;-77
2022/01/13 10:24:24;;;;;;;44.42;12.25;;;;;;;;;;5093884;28;20086;-78
2022/01/13 10:26:59;;;;;;;41.13;10.93;;;;;;;;;;5076876;28;20048;-76
2022/01/13 10:29:37;;;;;;;39.50;12.05;;;;;;;;;;5093673;28;20119;-78
2022/01/13 10:32:03;;;;;;;43.00;11.35;;;;;;;;;;5076036;28;20024;-77
2022/01/13 10:34:32;;;;;;;37.42;10.85;;;;;;;;;;5077149;28;20047;-78
2022/01/13 10:36:58;;;;;;;38.47;11.40;;;;;;;;;;5076910;28;20554;-76
2022/01/13 10:39:43;;;;;;;45.70;12.48;;;;;;;;;;5077069;28;20198;-77
2022/01/13 10:43:06;;;;;;;46.60;11.82;;;;;;;;;;5093625;28;20705;-75
2022/01/13 10:44:58;;;;;;;40.15;12.23;;;;;;;;;;5085297;28;20098;-77
2022/01/13 10:47:25;;;;;;;41.20;11.50;;;;;;;;;;5094149;28;20034;-78
2022/01/13 10:49:52;;;;;;;39.60;12.00;;;;;;;;;;5093439;28;20499;-76
2022/01/13 10:52:24;;;;;;;43.65;12.20;;;;;;;;;;5076818;28;20040;-76
2022/01/13 10:54:53;;;;;;;39.92;11.98;;;;;;;;;;5093803;28;20043;-76
2022/01/13 10:57:20;;;;;;;37.33;10.77;;;;;;;;;;5093630;28;20047;-77
2022/01/13 10:59:46;;;;;;;40.85;11.07;;;;;;;;;;5076393;28;20464;-76
2022/01/13 11:02:13;;;;;;;38.83;10.95;;;;;;;;;;5075930;28;20036;-73
2022/01/13 11:04:39;;;;;;;39.33;12.48;;;;;;;;;;5076360;28;20479;-77
2022/01/13 11:07:18;;;;;;;44.08;11.85;;;;;;;;;;5093003;28;20040;-77
2022/01/13 11:09:54;;;;;;;45.63;11.65;;;;;;;;;;5093288;28;20043;-76
2022/01/13 11:12:36;;;;;;;32.65;11.15;;;;;;;;;;5093637;28;20044;-76
2022/01/13 11:15:05;;;;;;;33.50;10.27;;;;;;;;;;5093342;28;20048;-75
2022/01/13 11:17:33;;;;;;;39.90;11.23;;;;;;;;;;5076301;28;20083;-77
2022/01/13 11:19:59;;;;;;;46.13;12.63;;;;;;;;;;5093122;28;20131;-74
2022/01/13 11:22:25;;;;;;;35.08;11.63;;;;;;;;;;5076132;28;20036;-77
2022/01/13 11:24:51;;;;;;;41.05;11.25;;;;;;;;;;5076346;28;20361;-77
2022/01/13 11:27:19;;;;;;;38.78;12.48;;;;;;;;;;5091520;28;20656;-75
2022/01/13 11:29:45;;;;;;;35.47;11.77;;;;;;;;;;5089584;28;20051;-78
2022/01/13 11:32:13;;;;;;;37.17;11.88;;;;;;;;;;5075864;28;20594;-77
2022/01/13 11:34:39;;;;;;;38.47;10.95;;;;;;;;;;5092855;28;20043;-78
2022/01/13 11:37:06;;;;;;;41.60;12.40;;;;;;;;;;5092990;28;20043;-77
2022/01/13 11:39:36;;;;;;;38.20;11.38;;;;;;;;;;5075655;28;20067;-76
2022/01/13 11:42:03;;;;;;;32.75;10.30;;;;;;;;;;5075842;28;20086;-77
2022/01/13 11:44:29;;;;;;;41.22;12.60;;;;;;;;;;5092297;28;20043;-79
2022/01/13 11:46:55;;;;;;;41.95;12.35;;;;;;;;;;5075593;28;20066;-77
2022/01/13 11:49:31;;;;;;;47.38;13.18;;;;;;;;;;5075310;28;20040;-79
2022/01/13 11:51:59;;;;;;;40.25;12.32;;;;;;;;;;5092275;28;20113;-77
2022/01/13 11:54:31;;;;;;;37.63;11.43;;;;;;;;;;5075504;28;20036;-77
2022/01/13 11:57:12;;;;;;;42.53;11.98;;;;;;;;;;5075623;28;20130;-78
2022/01/13 11:59:38;;;;;;;37.13;11.68;;;;;;;;;;5075242;28;20075;-77
2022/01/13 12:02:24;;;;;;;37.13;10.65;;;;;;;;;;5075544;28;20040;-79
2022/01/13 12:05:17;;;;;;;34.30;10.38;;;;;;;;;;5075493;28;20121;-77
2022/01/13 12:07:49;;;;;;;37.55;11.57;;;;;;;;;;5075455;28;20046;-78
2022/01/13 12:10:21;;;;;;;38.10;12.30;;;;;;;;;;5092399;28;20096;-77
2022/01/13 12:12:47;;;;;;;36.22;12.10;;;;;;;;;;5075915;28;20043;-78
2022/01/13 12:15:15;;;;;;;36.75;13.23;;;;;;;;;;5091879;28;20055;-77
2022/01/13 12:17:58;;;;;;;35.55;11.07;;;;;;;;;;5075007;28;20044;-78
2022/01/13 12:20:47;;;;;;;37.33;11.80;;;;;;;;;;5092115;28;20121;-79
2022/01/13 12:23:32;;;;;;;36.47;12.95;;;;;;;;;;5092120;28;20092;-77
2022/01/13 12:25:59;;;;;;;29.77;11.45;;;;;;;;;;5074721;28;20076;-77
2022/01/13 12:28:27;;;;;;;37.58;11.95;;;;;;;;;;5074802;28;20440;-76
2022/01/13 12:30:53;;;;;;;35.22;12.60;;;;;;;;;;5091685;28;20391;-78
2022/01/13 12:33:32;;;;;;;33.15;12.13;;;;;;;;;;5074869;28;20131;-78
2022/01/13 12:35:58;;;;;;;37.45;12.38;;;;;;;;;;5092237;28;20069;-75
2022/01/13 12:38:26;;;;;;;34.30;13.63;;;;;;;;;;5092136;28;20047;-77
2022/01/13 12:40:59;;;;;;;31.30;11.40;;;;;;;;;;5091186;28;20044;-80
2022/01/13 12:46:14;;;;;;;38.60;13.00;;;;;;;;;;5091207;28;20047;-77
2022/01/13 12:48:41;;;;;;;40.78;14.23;;;;;;;;;;5074743;28;20036;-77
2022/01/13 12:51:07;;;;;;;38.13;12.80;;;;;;;;;;5074738;28;20040;-77
2022/01/13 12:53:34;;;;;;;44.22;13.18;;;;;;;;;;5074926;28;20040;-77
2022/01/13 12:56:03;;;;;;;38.85;12.27;;;;;;;;;;5091179;28;20039;-77
2022/01/13 12:58:30;;;;;;;44.08;14.13;;;;;;;;;;5074699;28;20119;-80
2022/01/13 13:01:23;;;;;;;42.22;12.98;;;;;;;;;;5088919;27;20396;-76
2022/01/13 13:04:05;;;;;;;48.70;13.95;;;;;;;;;;5070905;28;20480;-78
2022/01/13 13:06:32;;;;;;;42.67;14.88;;;;;;;;;;5070767;28;20480;-77
2022/01/13 13:09:04;;;;;;;43.17;13.65;;;;;;;;;;5070961;28;20048;-77
2022/01/13 13:11:31;;;;;;;44.88;14.80;;;;;;;;;;5070697;28;20040;-78
2022/01/13 13:13:58;;;;;;;42.97;14.70;;;;;;;;;;5071003;28;20046;-77
2022/01/13 13:16:24;;;;;;;45.92;14.10;;;;;;;;;;5087109;28;20048;-77
2022/01/13 13:18:52;;;;;;;43.28;14.10;;;;;;;;;;5086949;28;20508;-77
2022/01/13 13:21:18;;;;;;;46.33;14.63;;;;;;;;;;5070316;28;20063;-76
2022/01/13 13:23:45;;;;;;;39.60;14.63;;;;;;;;;;5087253;28;20119;-76
2022/01/13 13:26:14;;;;;;;45.70;14.18;;;;;;;;;;5088028;28;20089;-77
2022/01/13 13:28:40;;;;;;;42.88;13.77;;;;;;;;;;5087189;28;20086;-75
2022/01/13 13:31:16;;;;;;;31.80;12.27;;;;;;;;;;5087230;28;20472;-77
2022/01/13 13:33:50;;;;;;;40.42;14.25;;;;;;;;;;5070598;28;20077;-76
2022/01/13 13:36:20;;;;;;;39.83;13.68;;;;;;;;;;5086947;28;20040;-77
2022/01/13 13:38:52;;;;;;;36.33;13.90;;;;;;;;;;5086780;28;20040;-77
2022/01/13 13:41:19;;;;;;;40.22;13.68;;;;;;;;;;5087451;28;20052;-76
2022/01/13 13:43:46;;;;;;;33.83;13.50;;;;;;;;;;5069551;28;20040;-77
2022/01/13 13:46:13;;;;;;;30.48;12.68;;;;;;;;;;5087339;28;20028;-78
2022/01/13 13:48:40;;;;;;;36.42;13.05;;;;;;;;;;5070254;28;20036;-78
2022/01/13 13:51:06;;;;;;;34.15;12.63;;;;;;;;;;5086890;28;20051;-76
2022/01/13 13:53:32;;;;;;;34.45;13.00;;;;;;;;;;5069949;28;20032;-79
2022/01/13 13:56:03;;;;;;;42.42;14.43;;;;;;;;;;5069893;28;20048;-78
2022/01/13 13:58:29;;;;;;;37.50;13.73;;;;;;;;;;5070002;28;20054;-78
2022/01/13 14:01:02;;;;;;;31.58;13.52;;;;;;;;;;5086995;28;20070;-77
2022/01/13 14:03:38;;;;;;;37.83;13.55;;;;;;;;;;5069654;28;20123;-77
2022/01/13 14:06:04;;;;;;;30.90;11.50;;;;;;;;;;5070434;28;20032;-78
2022/01/13 14:08:30;;;;;;;36.58;13.15;;;;;;;;;;5087308;28;20515;-78
2022/01/13 14:11:07;;;;;;;40.30;14.07;;;;;;;;;;5082086;28;20040;-79
2022/01/13 14:13:33;;;;;;;29.50;11.88;;;;;;;;;;5056524;28;20067;-77
2022/01/13 14:15:59;;;;;;;31.98;12.70;;;;;;;;;;5056452;28;20111;-77
2022/01/13 14:18:25;;;;;;;32.42;13.98;;;;;;;;;;5056283;28;20131;-76
2022/01/13 14:20:56;;;;;;;27.38;11.48;;;;;;;;;;5072680;28;20045;-76
2022/01/13 14:23:26;;;;;;;29.52;12.82;;;;;;;;;;5073576;28;20126;-76
2022/01/13 14:25:56;;;;;;;32.10;12.00;;;;;;;;;;5072851;28;20041;-77
2022/01/13 14:28:22;;;;;;;37.40;12.75;;;;;;;;;;5073333;28;20090;-77
2022/01/13 14:30:49;;;;;;;34.45;13.60;;;;;;;;;;5055992;28;20048;-79
2022/01/13 14:33:23;;;;;;;34.85;13.57;;;;;;;;;;5072639;28;20044;-77
2022/01/13 14:36:08;;;;;;;34.67;13.20;;;;;;;;;;5072576;28;20093;-77
2022/01/13 14:38:40;;;;;;;31.80;12.25;;;;;;;;;;5052487;28;20132;-76
2022/01/13 14:41:07;;;;;;;26.80;12.98;;;;;;;;;;5035808;28;20570;-77
2022/01/13 14:43:33;;;;;;;32.92;13.07;;;;;;;;;;5051847;28;20099;-76
2022/01/13 14:46:08;;;;;;;28.27;12.68;;;;;;;;;;5051840;28;20512;-77
2022/01/13 14:48:34;;;;;;;27.45;12.55;;;;;;;;;;5033236;28;20037;-78
2022/01/13 14:51:03;;;;;;;32.70;13.85;;;;;;;;;;5048244;28;20856;-76